Leonie — PHLE — position and weather

sailwx.info

Track history (hours):
 
Tides and Currents Weather Stations Pressure Air Temp Water Temp Dewpoint Dewpoint Depression Visibility Wind Speed Wind Dir Waves Ship Positions

Leonie

Last reported at 2017-Jan-19 12:33 UTC. Time now 2017-Jan-19 12:55 UTC.
Position N 59°22' E 019°45'.

Length 90 m; draft 5.5 m.

Type: Cargo ship. MMSI: 244772000.

Date/timePositionNaut miles runAvg speedWind from/ knotsBaromVisibWave heightAir tempDewpointWater temp
2017-Jan-19 12:33N 59°22' E 019°45'1410.5
2017-Jan-19 11:14N 59°34' E 019°58'710.4
2017-Jan-19 10:33N 59°40' E 019°51'1111.3
2017-Jan-19 09:33N 59°48' E 019°36'1111.0
2017-Jan-19 08:33N 59°57' E 019°23'1111.4
2017-Jan-19 07:33N 60°06' E 019°08'  
2017-Jan-14 08:09N 60°01' E 019°23'  
2017-Jan-11 14:12N 55°31' E 014°39'710.9
2017-Jan-11 13:33N 55°24' E 014°38'1110.7
2017-Jan-11 12:33N 55°16' E 014°26'1110.7
2017-Jan-11 11:32N 55°07' E 014°14'10 9.9
2017-Jan-11 10:31N 55°01' E 014°01'10 9.7
2017-Jan-11 09:32N 54°58' E 013°45'6110.2
2017-Jan-11 03:33N 54°27' E 012°14'1010.0
2017-Jan-11 02:33N 54°24' E 011°57'1110.3
2017-Jan-11 01:29N 54°27' E 011°39'1010.5
2017-Jan-11 00:33N 54°31' E 011°24'1110.6
2017-Jan-10 23:33N 54°35' E 011°07'1111.2
2017-Jan-10 22:33N 54°34' E 010°48'1010.3
2017-Jan-10 21:33N 54°36' E 010°30'  
Track history (hours):
 
Tides and Currents Weather Stations Pressure Air Temp Water Temp Dewpoint Dewpoint Depression Visibility Wind Speed Wind Dir Waves Ship Positions

Leonie

Last reported at 2017-Jan-19 12:33 UTC. Time now 2017-Jan-19 12:55 UTC.
Position N 59°22' E 019°45'.

Length 90 m; draft 5.5 m.

Type: Cargo ship. MMSI: 244772000.

Date/timePositionNaut miles runAvg speedWind from/ knotsBaromVisibWave heightAir tempDewpointWater temp
2017-Jan-19 12:33N 59°22' E 019°45'1410.5
2017-Jan-19 11:14N 59°34' E 019°58'710.4
2017-Jan-19 10:33N 59°40' E 019°51'1111.3
2017-Jan-19 09:33N 59°48' E 019°36'1111.0
2017-Jan-19 08:33N 59°57' E 019°23'1111.4
2017-Jan-19 07:33N 60°06' E 019°08'  
2017-Jan-14 08:09N 60°01' E 019°23'  
2017-Jan-11 14:12N 55°31' E 014°39'710.9
2017-Jan-11 13:33N 55°24' E 014°38'1110.7
2017-Jan-11 12:33N 55°16' E 014°26'1110.7
2017-Jan-11 11:32N 55°07' E 014°14'10 9.9
2017-Jan-11 10:31N 55°01' E 014°01'10 9.7
2017-Jan-11 09:32N 54°58' E 013°45'6110.2
2017-Jan-11 03:33N 54°27' E 012°14'1010.0
2017-Jan-11 02:33N 54°24' E 011°57'1110.3
2017-Jan-11 01:29N 54°27' E 011°39'1010.5
2017-Jan-11 00:33N 54°31' E 011°24'1110.6
2017-Jan-10 23:33N 54°35' E 011°07'1111.2
2017-Jan-10 22:33N 54°34' E 010°48'1010.3
2017-Jan-10 21:33N 54°36' E 010°30'  

Dump ship's entire track history